コロンボ の空港の天気 - METARとTAF

バンダラナイケ国際空港 ( VCBI / CMB ) - スリランカ コロンボ
飛行場実況気象(Metar)
観測時間07/01 18:40 IST (07/01 13:10 UTC)
風向・風速西南西 4m/s
視程10km以上
天気現象
全天の4割程度の雲 雲底高度 520m
気温29℃
湿度79%
気圧1005hPa
METARVCBI 011310Z 25007KT 220V290 9999 SCT017 29/25 Q1005 NOSIG
過去の天気等 Google飛行場航空写真 Wunderground天気予報

過去48時間のMETAR

飛行場予報(TAF)
発表時間: 7/01 16:30 IST (7/01 11:00 UTC)
予報対象時間: 1日17時 IST ~ 2日23時 IST
風向・風速西南西 5m/s
視程10km以上
全天の4割程度の雲 雲底高度 520m
2日8時 IST ~ 2日10時 IST に徐々に
風向・風速西 6m/s 瞬間風速 13m/s
TAF VCBI 011100Z 0112/0218 25010KT 9999 SCT017 TX32/0207Z TN26/0200Z
BECMG 0203/0205 26012G25KT